Yuho Maru No.12 — JD4120 — position and weather

sailwx.info

Track history (hours):
 
Tides and Currents Weather Stations Pressure Air Temp Water Temp Dewpoint Dewpoint Depression Visibility Wind Speed Wind Dir Waves Ship Positions

Yuho Maru No.12

Last reported at 2018-Feb-18 08:49 UTC. Time now 2018-Feb-19 12:12 UTC.
Position N 34°27' E 134°02'.

Length 65 m; draft 4.4 m.

Type: Tanker. MMSI: 431009043.

Date/timePositionNaut miles runAvg speedWind from/ knotsBaromVisibWave heightAir tempDewpointWater temp
2018-Feb-18 08:49N 34°27' E 134°02'8 9.9
2018-Feb-18 08:02N 34°32' E 134°08'011.8
2018-Feb-18 08:00N 34°32' E 134°09'1211.0
2018-Feb-18 06:56N 34°38' E 134°21'511.3
2018-Feb-18 06:31N 34°41' E 134°26'611.0
2018-Feb-18 06:01N 34°43' E 134°32'611.0
2018-Feb-18 05:30N 34°46' E 134°38'1 0.2
2018-Feb-17 22:46N 34°47' E 134°38'1 2.2
2018-Feb-17 22:29N 34°47' E 134°38'3 5.8
2018-Feb-17 21:58N 34°44' E 134°38'0 0.1
2018-Feb-17 20:29N 34°44' E 134°38'0 0.0
2018-Feb-17 19:59N 34°44' E 134°38'0 0.0
2018-Feb-17 19:29N 34°44' E 134°38'0 0.0
2018-Feb-17 18:59N 34°44' E 134°38'0 0.0
2018-Feb-17 18:29N 34°44' E 134°38'0 0.0
2018-Feb-17 17:59N 34°44' E 134°38'0 0.0
2018-Feb-17 17:23N 34°44' E 134°38'0 0.0
2018-Feb-17 16:59N 34°44' E 134°38'0 0.0
2018-Feb-17 16:29N 34°44' E 134°38'0 0.0
2018-Feb-17 15:59N 34°44' E 134°38'0 0.0
2018-Feb-17 15:23N 34°44' E 134°38'0 0.0
2018-Feb-17 14:50N 34°44' E 134°38'0 0.0
2018-Feb-17 14:29N 34°44' E 134°38'0 0.0
2018-Feb-17 11:35N 34°44' E 134°38'0 0.0
2018-Feb-17 11:23N 34°44' E 134°38'0 0.0
2018-Feb-17 10:59N 34°44' E 134°38'0 0.0
2018-Feb-17 10:29N 34°44' E 134°38'2 3.5
2018-Feb-17 10:00N 34°43' E 134°40'510.9
2018-Feb-17 09:31N 34°40' E 134°46'510.9
2018-Feb-17 09:01N 34°38' E 134°52'510.2
2018-Feb-17 08:31N 34°38' E 134°58'5 9.2
2018-Feb-17 08:00N 34°36' E 135°03'510.8
2018-Feb-17 07:30N 34°36' E 135°10'510.7
2018-Feb-17 07:01N 34°35' E 135°16'510.9
2018-Feb-17 06:30N 34°34' E 135°22'3 5.2
2018-Feb-17 05:58N 34°32' E 135°25'0 0.0
2018-Feb-17 05:25N 34°32' E 135°25'0 0.0
2018-Feb-17 04:58N 34°32' E 135°25'0 0.0
2018-Feb-17 04:28N 34°32' E 135°25'0 0.0
2018-Feb-17 03:55N 34°32' E 135°25'0 0.0
2018-Feb-17 03:28N 34°32' E 135°25'0 0.0
2018-Feb-17 02:58N 34°32' E 135°25'0 0.0
2018-Feb-17 02:28N 34°32' E 135°25'0 0.0
2018-Feb-17 01:55N 34°32' E 135°25'0 0.0
2018-Feb-17 01:25N 34°32' E 135°25'0 0.0
2018-Feb-17 00:55N 34°32' E 135°25'0 0.0
2018-Feb-17 00:28N 34°32' E 135°25'0 0.0
2018-Feb-16 23:58N 34°32' E 135°25'2 3.3
2018-Feb-16 23:30N 34°33' E 135°24'3 6.0
2018-Feb-16 22:58N 34°32' E 135°20'0 0.0
2018-Feb-16 22:28N 34°32' E 135°20'0 0.0
2018-Feb-16 21:58N 34°32' E 135°20'0 0.0
2018-Feb-16 21:28N 34°32' E 135°20'0 0.1
2018-Feb-16 20:58N 34°32' E 135°20'0 0.0
2018-Feb-16 20:28N 34°32' E 135°20'0 0.0
2018-Feb-16 19:58N 34°32' E 135°20'0 0.0
2018-Feb-16 19:28N 34°32' E 135°20'0 0.0
2018-Feb-16 18:58N 34°32' E 135°20'0 0.1
2018-Feb-16 18:28N 34°32' E 135°20'0 0.0
2018-Feb-16 17:58N 34°32' E 135°20'0 0.0
2018-Feb-16 17:28N 34°32' E 135°20'0 0.0
2018-Feb-16 16:58N 34°32' E 135°20'0 0.0
2018-Feb-16 16:25N 34°32' E 135°20'0 0.0
2018-Feb-16 15:58N 34°32' E 135°20'0 0.0
2018-Feb-16 15:28N 34°32' E 135°20'0 0.0
2018-Feb-16 14:58N 34°32' E 135°20'0 0.0
2018-Feb-16 14:28N 34°32' E 135°20'0 0.0
2018-Feb-16 13:58N 34°32' E 135°20'2 4.2
2018-Feb-16 13:31N 34°31' E 135°18'611.5
2018-Feb-16 13:00N 34°28' E 135°12'611.7
2018-Feb-16 12:31N 34°23' E 135°08'611.9
2018-Feb-16 12:00N 34°18' E 135°04'611.7
2018-Feb-16 11:30N 34°12' E 135°03'611.7
2018-Feb-16 11:00N 34°06' E 135°02'611.8
2018-Feb-16 10:30N 34°01' E 135°02'611.7
2018-Feb-16 09:59N 33°55' E 135°02'164 9.5
2018-Feb-15 16:37N 34°33' E 138°15'1 8.9
2018-Feb-15 16:29N 34°33' E 138°17'5 8.9
2018-Feb-15 15:53N 34°33' E 138°23'4 9.0
2018-Feb-15 15:27N 34°33' E 138°28'4 8.7
2018-Feb-15 15:00N 34°33' E 138°33'4 8.5
2018-Feb-15 14:30N 34°33' E 138°38'14 8.4
2018-Feb-15 12:52N 34°35' E 138°55'3 8.4
2018-Feb-15 12:29N 34°37' E 138°58'5 9.6
2018-Feb-15 11:59N 34°41' E 139°02'1410.3
2018-Feb-15 10:39N 34°52' E 139°12'13 9.7
2018-Feb-15 09:16N 34°59' E 139°25'4 9.3
2018-Feb-15 08:47N 35°02' E 139°30'3 9.2
2018-Feb-15 08:29N 35°03' E 139°33'5 9.9
2018-Feb-15 08:00N 35°05' E 139°38'510.0
2018-Feb-15 07:30N 35°08' E 139°43'510.8
2018-Feb-15 07:01N 35°13' E 139°46'510.3
2018-Feb-15 06:30N 35°18' E 139°44'510.8
2018-Feb-15 06:01N 35°23' E 139°42'611.3
2018-Feb-15 05:31N 35°27' E 139°47'611.5
2018-Feb-15 04:57N 35°30' E 139°54'511.5
2018-Feb-15 04:29N 35°30' E 140°00'1 0.4
2018-Feb-15 00:27N 35°30' E 140°02'1 3.0
2018-Feb-14 23:58N 35°30' E 140°00'0 0.0
2018-Feb-14 23:22N 35°31' E 140°00'0 0.1
2018-Feb-14 22:58N 35°31' E 140°00'1 1.1
2018-Feb-14 22:30N 35°30' E 139°60'611.3
2018-Feb-14 21:58N 35°30' E 139°52'511.1
2018-Feb-14 21:31N 35°30' E 139°46'0 0.0
2018-Feb-14 07:58N 35°30' E 139°46'3 5.7
2018-Feb-14 07:30N 35°29' E 139°49'510.6
2018-Feb-14 07:00N 35°24' E 139°49'4 4.8
2018-Feb-14 06:16N 35°22' E 139°53'0 0.0
2018-Feb-14 05:58N 35°22' E 139°53'0 0.0
2018-Feb-14 05:16N 35°22' E 139°53'0 0.0
2018-Feb-14 04:58N 35°22' E 139°53'0 0.0
2018-Feb-14 04:28N 35°22' E 139°53'0 0.1
2018-Feb-14 04:00N 35°22' E 139°53'4 8.4
2018-Feb-14 03:30N 35°24' E 139°48'510.3
2018-Feb-14 03:00N 35°29' E 139°51'610.8
2018-Feb-14 02:29N 35°31' E 139°57'510.1
2018-Feb-14 01:59N 35°32' E 140°03'0 0.0
2018-Feb-13 21:51N 35°32' E 140°04'1 3.8
2018-Feb-13 21:30N 35°32' E 140°02'0 0.1
2018-Feb-13 20:58N 35°32' E 140°02'0 0.0
2018-Feb-13 19:28N 35°32' E 140°02'0 0.0
2018-Feb-13 18:52N 35°32' E 140°02'0 0.0
2018-Feb-13 18:28N 35°32' E 140°02'0 0.1
2018-Feb-13 17:58N 35°32' E 140°02'0 0.0
2018-Feb-13 17:28N 35°32' E 140°02'0 0.0
2018-Feb-13 16:58N 35°32' E 140°02'0 0.1
2018-Feb-13 16:28N 35°32' E 140°02'0 0.0
2018-Feb-13 15:58N 35°32' E 140°02'0 0.0
2018-Feb-13 15:28N 35°32' E 140°02'0 0.0
2018-Feb-13 14:58N 35°32' E 140°02'0 0.0
2018-Feb-13 14:28N 35°32' E 140°02'0 0.0
2018-Feb-13 13:58N 35°32' E 140°02'0 0.1
2018-Feb-13 13:28N 35°32' E 140°02'0 0.0
2018-Feb-13 12:52N 35°32' E 140°02'0 0.0
2018-Feb-13 12:28N 35°32' E 140°02'0 0.0
2018-Feb-13 11:58N 35°32' E 140°02'0 0.0
2018-Feb-13 11:28N 35°32' E 140°02'0 0.0
2018-Feb-13 10:58N 35°32' E 140°02'0 0.0
2018-Feb-13 10:28N 35°32' E 140°02'0 0.0
2018-Feb-13 09:58N 35°32' E 140°02'0 0.0
2018-Feb-13 09:28N 35°32' E 140°02'0 0.1
2018-Feb-13 08:58N 35°32' E 140°02'2 5.2
2018-Feb-13 08:30N 35°31' E 139°59'612.5
2018-Feb-13 08:00N 35°29' E 139°52'611.2
2018-Feb-13 07:30N 35°24' E 139°48'4 8.3
2018-Feb-13 07:00N 35°22' E 139°53'0 0.0
2018-Feb-13 06:01N 35°22' E 139°53'0 0.0
2018-Feb-13 05:50N 35°22' E 139°53'0 0.0
2018-Feb-13 05:25N 35°22' E 139°53'0 0.0
2018-Feb-13 04:52N 35°22' E 139°53'0 0.0
2018-Feb-13 04:25N 35°22' E 139°53'0 0.0
2018-Feb-13 03:58N 35°22' E 139°53'0 0.0
2018-Feb-13 03:31N 35°22' E 139°53'3 6.2
2018-Feb-13 03:00N 35°23' E 139°49'4 8.0
2018-Feb-13 02:31N 35°22' E 139°45'510.3
2018-Feb-13 02:00N 35°16' E 139°46'510.9
2018-Feb-13 01:30N 35°11' E 139°47'510.9
2018-Feb-13 01:01N 35°06' E 139°45'611.2
2018-Feb-13 00:30N 35°02' E 139°41'712.0
2018-Feb-12 23:54N 34°58' E 139°33'612.4
2018-Feb-12 23:25N 34°54' E 139°27'512.9
2018-Feb-12 23:00N 34°51' E 139°22'613.0
2018-Feb-12 22:31N 34°47' E 139°15'712.8
2018-Feb-12 21:58N 34°43' E 139°09'612.4
2018-Feb-12 21:31N 34°39' E 139°04'510.0
2018-Feb-12 21:00N 34°37' E 138°59'510.9
2018-Feb-12 20:31N 34°34' E 138°53'612.0
2018-Feb-12 20:00N 34°34' E 138°45'611.5
2018-Feb-12 19:27N 34°34' E 138°38'511.4
2018-Feb-12 18:59N 34°32' E 138°31'17510.4
2018-Feb-12 02:05N 33°49' E 135°06'112.4
2018-Feb-12 01:58N 33°50' E 135°05'611.8
2018-Feb-12 01:28N 33°56' E 135°02'511.7
2018-Feb-12 01:00N 34°01' E 135°01'611.6
2018-Feb-12 00:30N 34°07' E 135°01'611.5
2018-Feb-12 00:00N 34°13' E 134°59'510.7
2018-Feb-11 23:31N 34°18' E 134°59'510.0
2018-Feb-11 23:00N 34°23' E 135°00'510.7
2018-Feb-11 22:31N 34°28' E 135°02'510.6
2018-Feb-11 22:00N 34°33' E 135°03'4 7.6
2018-Feb-11 21:31N 34°37' E 135°01'4 8.0
2018-Feb-11 21:00N 34°36' E 134°57'5 9.2
2018-Feb-11 20:30N 34°34' E 134°51'510.4
2018-Feb-11 20:00N 34°32' E 134°46'611.1
2018-Feb-11 19:30N 34°30' E 134°39'611.2
2018-Feb-11 19:00N 34°28' E 134°33'611.2
2018-Feb-11 18:30N 34°26' E 134°27'8710.9
2018-Feb-11 10:31N 34°01' E 132°46'611.9
2018-Feb-11 10:00N 33°56' E 132°42'812.0
2018-Feb-11 09:20N 33°51' E 132°34'411.7
2018-Feb-11 09:00N 33°48' E 132°31'911.8
2018-Feb-11 08:13N 33°43' E 132°22'2311.2
2018-Feb-11 06:08N 33°29' E 131°59'110.6
2018-Feb-11 06:00N 33°28' E 131°58'510.7
2018-Feb-11 05:30N 33°25' E 131°53'611.0
2018-Feb-11 04:58N 33°21' E 131°47'511.2
2018-Feb-11 04:30N 33°18' E 131°42'2 0.7
2018-Feb-11 01:15N 33°16' E 131°41'1 3.0
2018-Feb-11 00:58N 33°17' E 131°41'511.4
2018-Feb-11 00:30N 33°21' E 131°44'712.3
2018-Feb-10 23:57N 33°26' E 131°50'511.0
2018-Feb-10 23:27N 33°28' E 131°56'3111.2
2018-Feb-10 20:41N 33°47' E 132°26'211.9
2018-Feb-10 20:30N 33°48' E 132°28'611.6
2018-Feb-10 20:00N 33°51' E 132°34'611.1
2018-Feb-10 19:30N 33°55' E 132°38'510.9
2018-Feb-10 19:00N 33°59' E 132°43'8310.8
2018-Feb-10 11:20N 34°25' E 134°19'412.1
2018-Feb-10 11:00N 34°26' E 134°23'612.6
2018-Feb-10 10:30N 34°28' E 134°30'612.5
2018-Feb-10 10:00N 34°30' E 134°37'712.8
2018-Feb-10 09:30N 34°33' E 134°45'613.3
2018-Feb-10 09:00N 34°35' E 134°52'713.6
2018-Feb-10 08:30N 34°38' E 134°60'713.0
2018-Feb-10 08:00N 34°36' E 135°07'713.5
2018-Feb-10 07:30N 34°38' E 135°15'612.1
2018-Feb-10 07:01N 34°39' E 135°22'0 0.1
2018-Feb-10 06:28N 34°39' E 135°22'2 5.4
2018-Feb-10 06:01N 34°40' E 135°25'0 0.0
2018-Feb-10 05:30N 34°40' E 135°25'0 0.0
2018-Feb-10 05:00N 34°40' E 135°25'0 0.0
2018-Feb-10 04:30N 34°40' E 135°25'0 0.0
2018-Feb-10 04:00N 34°40' E 135°25'0 0.0
2018-Feb-10 03:30N 34°40' E 135°25'0 0.0
2018-Feb-10 03:00N 34°40' E 135°25'0 0.0
2018-Feb-10 02:29N 34°40' E 135°25'0 0.0
2018-Feb-10 02:00N 34°40' E 135°25'1 2.6
2018-Feb-10 01:30N 34°40' E 135°24'510.4
2018-Feb-10 01:00N 34°38' E 135°18'510.7
2018-Feb-10 00:30N 34°36' E 135°12'510.9
2018-Feb-10 00:00N 34°35' E 135°05'510.9
2018-Feb-09 23:30N 34°37' E 134°59'611.3
2018-Feb-09 23:00N 34°35' E 134°53'210.3
2018-Feb-09 22:46N 34°34' E 134°51'  
Track history (hours):
 
Tides and Currents Weather Stations Pressure Air Temp Water Temp Dewpoint Dewpoint Depression Visibility Wind Speed Wind Dir Waves Ship Positions

Yuho Maru No.12

Last reported at 2018-Feb-18 08:49 UTC. Time now 2018-Feb-19 12:12 UTC.
Position N 34°27' E 134°02'.

Length 65 m; draft 4.4 m.

Type: Tanker. MMSI: 431009043.

Date/timePositionNaut miles runAvg speedWind from/ knotsBaromVisibWave heightAir tempDewpointWater temp
2018-Feb-18 08:49N 34°27' E 134°02'8 9.9
2018-Feb-18 08:02N 34°32' E 134°08'011.8
2018-Feb-18 08:00N 34°32' E 134°09'1211.0
2018-Feb-18 06:56N 34°38' E 134°21'511.3
2018-Feb-18 06:31N 34°41' E 134°26'611.0
2018-Feb-18 06:01N 34°43' E 134°32'611.0
2018-Feb-18 05:30N 34°46' E 134°38'1 0.2
2018-Feb-17 22:46N 34°47' E 134°38'1 2.2
2018-Feb-17 22:29N 34°47' E 134°38'3 5.8
2018-Feb-17 21:58N 34°44' E 134°38'0 0.1
2018-Feb-17 20:29N 34°44' E 134°38'0 0.0
2018-Feb-17 19:59N 34°44' E 134°38'0 0.0
2018-Feb-17 19:29N 34°44' E 134°38'0 0.0
2018-Feb-17 18:59N 34°44' E 134°38'0 0.0
2018-Feb-17 18:29N 34°44' E 134°38'0 0.0
2018-Feb-17 17:59N 34°44' E 134°38'0 0.0
2018-Feb-17 17:23N 34°44' E 134°38'0 0.0
2018-Feb-17 16:59N 34°44' E 134°38'0 0.0
2018-Feb-17 16:29N 34°44' E 134°38'0 0.0
2018-Feb-17 15:59N 34°44' E 134°38'0 0.0
2018-Feb-17 15:23N 34°44' E 134°38'0 0.0
2018-Feb-17 14:50N 34°44' E 134°38'0 0.0
2018-Feb-17 14:29N 34°44' E 134°38'0 0.0
2018-Feb-17 11:35N 34°44' E 134°38'0 0.0
2018-Feb-17 11:23N 34°44' E 134°38'0 0.0
2018-Feb-17 10:59N 34°44' E 134°38'0 0.0
2018-Feb-17 10:29N 34°44' E 134°38'2 3.5
2018-Feb-17 10:00N 34°43' E 134°40'510.9
2018-Feb-17 09:31N 34°40' E 134°46'510.9
2018-Feb-17 09:01N 34°38' E 134°52'510.2
2018-Feb-17 08:31N 34°38' E 134°58'5 9.2
2018-Feb-17 08:00N 34°36' E 135°03'510.8
2018-Feb-17 07:30N 34°36' E 135°10'510.7
2018-Feb-17 07:01N 34°35' E 135°16'510.9
2018-Feb-17 06:30N 34°34' E 135°22'3 5.2
2018-Feb-17 05:58N 34°32' E 135°25'0 0.0
2018-Feb-17 05:25N 34°32' E 135°25'0 0.0
2018-Feb-17 04:58N 34°32' E 135°25'0 0.0
2018-Feb-17 04:28N 34°32' E 135°25'0 0.0
2018-Feb-17 03:55N 34°32' E 135°25'0 0.0
2018-Feb-17 03:28N 34°32' E 135°25'0 0.0
2018-Feb-17 02:58N 34°32' E 135°25'0 0.0
2018-Feb-17 02:28N 34°32' E 135°25'0 0.0
2018-Feb-17 01:55N 34°32' E 135°25'0 0.0
2018-Feb-17 01:25N 34°32' E 135°25'0 0.0
2018-Feb-17 00:55N 34°32' E 135°25'0 0.0
2018-Feb-17 00:28N 34°32' E 135°25'0 0.0
2018-Feb-16 23:58N 34°32' E 135°25'2 3.3
2018-Feb-16 23:30N 34°33' E 135°24'3 6.0
2018-Feb-16 22:58N 34°32' E 135°20'0 0.0
2018-Feb-16 22:28N 34°32' E 135°20'0 0.0
2018-Feb-16 21:58N 34°32' E 135°20'0 0.0
2018-Feb-16 21:28N 34°32' E 135°20'0 0.1
2018-Feb-16 20:58N 34°32' E 135°20'0 0.0
2018-Feb-16 20:28N 34°32' E 135°20'0 0.0
2018-Feb-16 19:58N 34°32' E 135°20'0 0.0
2018-Feb-16 19:28N 34°32' E 135°20'0 0.0
2018-Feb-16 18:58N 34°32' E 135°20'0 0.1
2018-Feb-16 18:28N 34°32' E 135°20'0 0.0
2018-Feb-16 17:58N 34°32' E 135°20'0 0.0
2018-Feb-16 17:28N 34°32' E 135°20'0 0.0
2018-Feb-16 16:58N 34°32' E 135°20'0 0.0
2018-Feb-16 16:25N 34°32' E 135°20'0 0.0
2018-Feb-16 15:58N 34°32' E 135°20'0 0.0
2018-Feb-16 15:28N 34°32' E 135°20'0 0.0
2018-Feb-16 14:58N 34°32' E 135°20'0 0.0
2018-Feb-16 14:28N 34°32' E 135°20'0 0.0
2018-Feb-16 13:58N 34°32' E 135°20'2 4.2
2018-Feb-16 13:31N 34°31' E 135°18'611.5
2018-Feb-16 13:00N 34°28' E 135°12'611.7
2018-Feb-16 12:31N 34°23' E 135°08'611.9
2018-Feb-16 12:00N 34°18' E 135°04'611.7
2018-Feb-16 11:30N 34°12' E 135°03'611.7
2018-Feb-16 11:00N 34°06' E 135°02'611.8
2018-Feb-16 10:30N 34°01' E 135°02'611.7
2018-Feb-16 09:59N 33°55' E 135°02'164 9.5
2018-Feb-15 16:37N 34°33' E 138°15'1 8.9
2018-Feb-15 16:29N 34°33' E 138°17'5 8.9
2018-Feb-15 15:53N 34°33' E 138°23'4 9.0
2018-Feb-15 15:27N 34°33' E 138°28'4 8.7
2018-Feb-15 15:00N 34°33' E 138°33'4 8.5
2018-Feb-15 14:30N 34°33' E 138°38'14 8.4
2018-Feb-15 12:52N 34°35' E 138°55'3 8.4
2018-Feb-15 12:29N 34°37' E 138°58'5 9.6
2018-Feb-15 11:59N 34°41' E 139°02'1410.3
2018-Feb-15 10:39N 34°52' E 139°12'13 9.7
2018-Feb-15 09:16N 34°59' E 139°25'4 9.3
2018-Feb-15 08:47N 35°02' E 139°30'3 9.2
2018-Feb-15 08:29N 35°03' E 139°33'5 9.9
2018-Feb-15 08:00N 35°05' E 139°38'510.0
2018-Feb-15 07:30N 35°08' E 139°43'510.8
2018-Feb-15 07:01N 35°13' E 139°46'510.3
2018-Feb-15 06:30N 35°18' E 139°44'510.8
2018-Feb-15 06:01N 35°23' E 139°42'611.3
2018-Feb-15 05:31N 35°27' E 139°47'611.5
2018-Feb-15 04:57N 35°30' E 139°54'511.5
2018-Feb-15 04:29N 35°30' E 140°00'1 0.4
2018-Feb-15 00:27N 35°30' E 140°02'1 3.0
2018-Feb-14 23:58N 35°30' E 140°00'0 0.0
2018-Feb-14 23:22N 35°31' E 140°00'0 0.1
2018-Feb-14 22:58N 35°31' E 140°00'1 1.1
2018-Feb-14 22:30N 35°30' E 139°60'611.3
2018-Feb-14 21:58N 35°30' E 139°52'511.1
2018-Feb-14 21:31N 35°30' E 139°46'0 0.0
2018-Feb-14 07:58N 35°30' E 139°46'3 5.7
2018-Feb-14 07:30N 35°29' E 139°49'510.6
2018-Feb-14 07:00N 35°24' E 139°49'4 4.8
2018-Feb-14 06:16N 35°22' E 139°53'0 0.0
2018-Feb-14 05:58N 35°22' E 139°53'0 0.0
2018-Feb-14 05:16N 35°22' E 139°53'0 0.0
2018-Feb-14 04:58N 35°22' E 139°53'0 0.0
2018-Feb-14 04:28N 35°22' E 139°53'0 0.1
2018-Feb-14 04:00N 35°22' E 139°53'4 8.4
2018-Feb-14 03:30N 35°24' E 139°48'510.3
2018-Feb-14 03:00N 35°29' E 139°51'610.8
2018-Feb-14 02:29N 35°31' E 139°57'510.1
2018-Feb-14 01:59N 35°32' E 140°03'0 0.0
2018-Feb-13 21:51N 35°32' E 140°04'1 3.8
2018-Feb-13 21:30N 35°32' E 140°02'0 0.1
2018-Feb-13 20:58N 35°32' E 140°02'0 0.0
2018-Feb-13 19:28N 35°32' E 140°02'0 0.0
2018-Feb-13 18:52N 35°32' E 140°02'0 0.0
2018-Feb-13 18:28N 35°32' E 140°02'0 0.1
2018-Feb-13 17:58N 35°32' E 140°02'0 0.0
2018-Feb-13 17:28N 35°32' E 140°02'0 0.0
2018-Feb-13 16:58N 35°32' E 140°02'0 0.1
2018-Feb-13 16:28N 35°32' E 140°02'0 0.0
2018-Feb-13 15:58N 35°32' E 140°02'0 0.0
2018-Feb-13 15:28N 35°32' E 140°02'0 0.0
2018-Feb-13 14:58N 35°32' E 140°02'0 0.0
2018-Feb-13 14:28N 35°32' E 140°02'0 0.0
2018-Feb-13 13:58N 35°32' E 140°02'0 0.1
2018-Feb-13 13:28N 35°32' E 140°02'0 0.0
2018-Feb-13 12:52N 35°32' E 140°02'0 0.0
2018-Feb-13 12:28N 35°32' E 140°02'0 0.0
2018-Feb-13 11:58N 35°32' E 140°02'0 0.0
2018-Feb-13 11:28N 35°32' E 140°02'0 0.0
2018-Feb-13 10:58N 35°32' E 140°02'0 0.0
2018-Feb-13 10:28N 35°32' E 140°02'0 0.0
2018-Feb-13 09:58N 35°32' E 140°02'0 0.0
2018-Feb-13 09:28N 35°32' E 140°02'0 0.1
2018-Feb-13 08:58N 35°32' E 140°02'2 5.2
2018-Feb-13 08:30N 35°31' E 139°59'612.5
2018-Feb-13 08:00N 35°29' E 139°52'611.2
2018-Feb-13 07:30N 35°24' E 139°48'4 8.3
2018-Feb-13 07:00N 35°22' E 139°53'0 0.0
2018-Feb-13 06:01N 35°22' E 139°53'0 0.0
2018-Feb-13 05:50N 35°22' E 139°53'0 0.0
2018-Feb-13 05:25N 35°22' E 139°53'0 0.0
2018-Feb-13 04:52N 35°22' E 139°53'0 0.0
2018-Feb-13 04:25N 35°22' E 139°53'0 0.0
2018-Feb-13 03:58N 35°22' E 139°53'0 0.0
2018-Feb-13 03:31N 35°22' E 139°53'3 6.2
2018-Feb-13 03:00N 35°23' E 139°49'4 8.0
2018-Feb-13 02:31N 35°22' E 139°45'510.3
2018-Feb-13 02:00N 35°16' E 139°46'510.9
2018-Feb-13 01:30N 35°11' E 139°47'510.9
2018-Feb-13 01:01N 35°06' E 139°45'611.2
2018-Feb-13 00:30N 35°02' E 139°41'712.0
2018-Feb-12 23:54N 34°58' E 139°33'612.4
2018-Feb-12 23:25N 34°54' E 139°27'512.9
2018-Feb-12 23:00N 34°51' E 139°22'613.0
2018-Feb-12 22:31N 34°47' E 139°15'712.8
2018-Feb-12 21:58N 34°43' E 139°09'612.4
2018-Feb-12 21:31N 34°39' E 139°04'510.0
2018-Feb-12 21:00N 34°37' E 138°59'510.9
2018-Feb-12 20:31N 34°34' E 138°53'612.0
2018-Feb-12 20:00N 34°34' E 138°45'611.5
2018-Feb-12 19:27N 34°34' E 138°38'511.4
2018-Feb-12 18:59N 34°32' E 138°31'17510.4
2018-Feb-12 02:05N 33°49' E 135°06'112.4
2018-Feb-12 01:58N 33°50' E 135°05'611.8
2018-Feb-12 01:28N 33°56' E 135°02'511.7
2018-Feb-12 01:00N 34°01' E 135°01'611.6
2018-Feb-12 00:30N 34°07' E 135°01'611.5
2018-Feb-12 00:00N 34°13' E 134°59'510.7
2018-Feb-11 23:31N 34°18' E 134°59'510.0
2018-Feb-11 23:00N 34°23' E 135°00'510.7
2018-Feb-11 22:31N 34°28' E 135°02'510.6
2018-Feb-11 22:00N 34°33' E 135°03'4 7.6
2018-Feb-11 21:31N 34°37' E 135°01'4 8.0
2018-Feb-11 21:00N 34°36' E 134°57'5 9.2
2018-Feb-11 20:30N 34°34' E 134°51'510.4
2018-Feb-11 20:00N 34°32' E 134°46'611.1
2018-Feb-11 19:30N 34°30' E 134°39'611.2
2018-Feb-11 19:00N 34°28' E 134°33'611.2
2018-Feb-11 18:30N 34°26' E 134°27'8710.9
2018-Feb-11 10:31N 34°01' E 132°46'611.9
2018-Feb-11 10:00N 33°56' E 132°42'812.0
2018-Feb-11 09:20N 33°51' E 132°34'411.7
2018-Feb-11 09:00N 33°48' E 132°31'911.8
2018-Feb-11 08:13N 33°43' E 132°22'2311.2
2018-Feb-11 06:08N 33°29' E 131°59'110.6
2018-Feb-11 06:00N 33°28' E 131°58'510.7
2018-Feb-11 05:30N 33°25' E 131°53'611.0
2018-Feb-11 04:58N 33°21' E 131°47'511.2
2018-Feb-11 04:30N 33°18' E 131°42'2 0.7
2018-Feb-11 01:15N 33°16' E 131°41'1 3.0
2018-Feb-11 00:58N 33°17' E 131°41'511.4
2018-Feb-11 00:30N 33°21' E 131°44'712.3
2018-Feb-10 23:57N 33°26' E 131°50'511.0
2018-Feb-10 23:27N 33°28' E 131°56'3111.2
2018-Feb-10 20:41N 33°47' E 132°26'211.9
2018-Feb-10 20:30N 33°48' E 132°28'611.6
2018-Feb-10 20:00N 33°51' E 132°34'611.1
2018-Feb-10 19:30N 33°55' E 132°38'510.9
2018-Feb-10 19:00N 33°59' E 132°43'8310.8
2018-Feb-10 11:20N 34°25' E 134°19'412.1
2018-Feb-10 11:00N 34°26' E 134°23'612.6
2018-Feb-10 10:30N 34°28' E 134°30'612.5
2018-Feb-10 10:00N 34°30' E 134°37'712.8
2018-Feb-10 09:30N 34°33' E 134°45'613.3
2018-Feb-10 09:00N 34°35' E 134°52'713.6
2018-Feb-10 08:30N 34°38' E 134°60'713.0
2018-Feb-10 08:00N 34°36' E 135°07'713.5
2018-Feb-10 07:30N 34°38' E 135°15'612.1
2018-Feb-10 07:01N 34°39' E 135°22'0 0.1
2018-Feb-10 06:28N 34°39' E 135°22'2 5.4
2018-Feb-10 06:01N 34°40' E 135°25'0 0.0
2018-Feb-10 05:30N 34°40' E 135°25'0 0.0
2018-Feb-10 05:00N 34°40' E 135°25'0 0.0
2018-Feb-10 04:30N 34°40' E 135°25'0 0.0
2018-Feb-10 04:00N 34°40' E 135°25'0 0.0
2018-Feb-10 03:30N 34°40' E 135°25'0 0.0
2018-Feb-10 03:00N 34°40' E 135°25'0 0.0
2018-Feb-10 02:29N 34°40' E 135°25'0 0.0
2018-Feb-10 02:00N 34°40' E 135°25'1 2.6
2018-Feb-10 01:30N 34°40' E 135°24'510.4
2018-Feb-10 01:00N 34°38' E 135°18'510.7
2018-Feb-10 00:30N 34°36' E 135°12'510.9
2018-Feb-10 00:00N 34°35' E 135°05'510.9
2018-Feb-09 23:30N 34°37' E 134°59'611.3
2018-Feb-09 23:00N 34°35' E 134°53'210.3
2018-Feb-09 22:46N 34°34' E 134°51'  

Dump ship's entire track history